logo tempoitalia

Diretta Meteo Port Hedland Pardoo, Australialunedì 31 agosto ore 13:00

Mappa
Sereno 33 °C Sereno 24 Ore: T.min 17 T.max 35
Ponente Nord-Ovest Km/h 24 Punto di rugiada: 14 °C Umidità: 31% Visibilità: 10 Km
Il sole sorge alle: 06:11 Il sole tramonta alle: 17:53
31 Agosto 2026 13:00 tempo osservato: Sereno Sereno 33 31 1016 vento: Nord NO 24
31 Agosto 2026 12:30 tempo osservato: Sereno Sereno 35 26 1017 vento: Nord N/NO 24
31 Agosto 2026 12:00 tempo osservato: Sereno Sereno 34 28 1017 vento: Nord NO 18.5
31 Agosto 2026 11:30 tempo osservato: Sereno Sereno 35 20 1017 vento: Nord O/SO 16.7
31 Agosto 2026 11:00 tempo osservato: Sereno Sereno 34 23 1018 vento: Nord S/SO 13
31 Agosto 2026 10:30 tempo osservato: Sereno Sereno 33 24 1018 vento: Nord SO 11.1
31 Agosto 2026 10:00 tempo osservato: Sereno Sereno 32 25 1018 vento: Nord S/SO 13
31 Agosto 2026 09:30 tempo osservato: Sereno Sereno 31 29 1018 vento: Nord S 13
31 Agosto 2026 09:00 tempo osservato: Sereno Sereno 30 30 1018 vento: Nord S/SO 14.8
31 Agosto 2026 08:30 tempo osservato: Sereno Sereno 27 39 1018 vento: Nord S/SO 11.1
31 Agosto 2026 08:00 tempo osservato: Sereno Sereno 24 50 1018 vento: Nord S 7.4
31 Agosto 2026 07:30 tempo osservato: Sereno Sereno 21 64 1018 vento: Nord N 0
31 Agosto 2026 07:00 tempo osservato: Sereno Sereno 18 82 1018 vento: Nord N 0
31 Agosto 2026 06:30 tempo osservato: Sereno Sereno 17 82 1017 vento: Nord N 0
31 Agosto 2026 06:00 tempo osservato: Sereno Sereno 17 82 1017 vento: Nord N 0
31 Agosto 2026 05:30 tempo osservato: Sereno Sereno 17 82 1017 vento: Nord N 0
31 Agosto 2026 05:00 tempo osservato: Sereno Sereno 17 82 1017 vento: Nord SO 9.3
31 Agosto 2026 04:30 tempo osservato: Sereno Sereno 17 82 1016 vento: Nord O/SO 9.3
31 Agosto 2026 04:00 tempo osservato: Sereno Sereno 17 82 1016 vento: Nord O/SO 11.1
31 Agosto 2026 03:30 tempo osservato: Sereno Sereno 17 88 1016 vento: Nord O/SO 11.1
31 Agosto 2026 03:00 tempo osservato: Sereno Sereno 18 82 1016 vento: Nord O/SO 11.1
31 Agosto 2026 02:30 tempo osservato: Sereno Sereno 18 82 1016 vento: Nord O/SO 9.3
31 Agosto 2026 02:00 tempo osservato: Sereno Sereno 18 82 1017 vento: Nord O/SO 11.1
31 Agosto 2026 01:30 tempo osservato: Sereno Sereno 18 77 1017 vento: Nord O/SO 11.1
31 Agosto 2026 01:00 tempo osservato: Sereno Sereno 19 77 1017 vento: Nord SO 9.3
31 Agosto 2026 00:30 tempo osservato: Sereno Sereno 19 77 1017 vento: Nord O/SO 11.1
31 Agosto 2026 00:00 tempo osservato: Sereno Sereno 20 72 1017 vento: Nord SO 9.3
30 Agosto 2026 23:30 tempo osservato: Sereno Sereno 20 72 1018 vento: Nord SO 9.3
30 Agosto 2026 23:00 tempo osservato: Sereno Sereno 21 73 1018 vento: Nord SO 9.3
30 Agosto 2026 22:30 tempo osservato: Sereno Sereno 21 73 1018 vento: Nord O/SO 9.3
30 Agosto 2026 22:00 tempo osservato: Sereno Sereno 21 73 1018 vento: Nord O/SO 9.3
30 Agosto 2026 21:30 tempo osservato: Sereno Sereno 21 73 1018 vento: Nord O/SO 9.3
30 Agosto 2026 21:00 tempo osservato: Sereno Sereno 23 68 1018 vento: Nord O/SO 11.1
30 Agosto 2026 20:30 tempo osservato: Sereno Sereno 24 64 1017 vento: Nord O 14.8
30 Agosto 2026 20:00 tempo osservato: Sereno Sereno 24 69 1017 vento: Nord O 14.8
30 Agosto 2026 19:30 tempo osservato: Sereno Sereno 24 64 1017 vento: Nord O 16.7
30 Agosto 2026 19:00 tempo osservato: Sereno Sereno 25 61 1016 vento: Nord O 16.7
30 Agosto 2026 18:30 tempo osservato: Sereno Sereno 26 57 1016 vento: Nord O 18.5
30 Agosto 2026 18:00 tempo osservato: Sereno Sereno 26 57 1015 vento: Nord O/NO 20.3
30 Agosto 2026 17:30 tempo osservato: Sereno Sereno 28 48 1015 vento: Nord O/NO 24
30 Agosto 2026 17:00 tempo osservato: Sereno Sereno 29 45 1015 vento: Nord O/NO 25.9
30 Agosto 2026 16:30 tempo osservato: Sereno Sereno 30 40 1014 vento: Nord O/NO 25.9
30 Agosto 2026 16:00 tempo osservato: Sereno Sereno 31 37 1014 vento: Nord O/NO 24
30 Agosto 2026 15:30 tempo osservato: Sereno Sereno 31 35 1014 vento: Nord NO 25.9
30 Agosto 2026 15:00 tempo osservato: Sereno Sereno 32 33 1014 vento: Nord NO 24
30 Agosto 2026 14:30 tempo osservato: Sereno Sereno 32 31 1014 vento: Nord NO 24
30 Agosto 2026 14:00 tempo osservato: Sereno Sereno 34 28 1014 vento: Nord N/NO 22.2